Time;durP1;ratioP1;P1;durP2;ratioP2;P2;SDS_P1;SDS_P2;PMS_P1;PMS_P2;Temp;Humidity;BMP_temperature;BMP_pressure;BME280_temperature;BME280_humidity;BME280_pressure;Samples;Min_cycle;Max_cycle;Signal;HPM_P1;HPM_P2
2022/07/20 00:00:05;;;;;;;7.75;3.05;;;24.80;74.20;;;;;;5084366;28;20052;-84
2022/07/20 00:02:51;;;;;;;6.90;2.97;;;24.70;74.10;;;;;;5082773;28;20041;-83
2022/07/20 00:05:42;;;;;;;6.95;2.78;;;24.70;74.90;;;;;;5079399;28;20091;-81
2022/07/20 00:11:34;;;;;;;6.57;2.60;;;24.60;75.60;;;;;;5079166;28;20049;-86
2022/07/20 00:14:20;;;;;;;9.35;2.90;;;24.50;76.00;;;;;;5076900;28;20064;-84
2022/07/20 00:17:06;;;;;;;8.07;3.58;;;24.40;76.70;;;;;;5075550;28;20437;-81
2022/07/20 00:19:53;;;;;;;8.13;3.03;;;24.30;77.20;;;;;;5074236;28;20475;-86
2022/07/20 00:22:40;;;;;;;7.53;3.00;;;24.20;77.40;;;;;;5063316;28;20056;-82
2022/07/20 00:25:27;;;;;;;5.88;2.88;;;24.20;78.20;;;;;;5060377;28;20484;-83
2022/07/20 00:28:13;;;;;;;9.35;3.13;;;24.10;78.40;;;;;;5075197;28;20542;-82
2022/07/20 00:30:59;;;;;;;9.00;3.08;;;24.00;78.90;;;;;;5078117;28;20044;-82
2022/07/20 00:33:48;;;;;;;6.85;2.75;;;23.90;79.50;;;;;;5078941;28;20140;-84
2022/07/20 00:36:34;;;;;;;9.60;3.63;;;23.80;80.10;;;;;;5080873;28;20066;-82
2022/07/20 00:39:20;;;;;;;6.15;3.20;;;23.70;80.60;;;;;;5079715;28;20446;-81
2022/07/20 00:42:07;;;;;;;8.73;3.53;;;23.70;81.10;;;;;;5079091;28;20049;-83
2022/07/20 00:44:53;;;;;;;6.25;2.90;;;23.60;81.80;;;;;;5081730;28;20298;-87
2022/07/20 00:47:40;;;;;;;6.13;3.00;;;23.50;82.00;;;;;;5082919;28;20055;-85
2022/07/20 00:50:26;;;;;;;7.95;3.47;;;23.50;82.40;;;;;;5088672;28;20048;-86
2022/07/20 00:53:12;;;;;;;6.72;3.38;;;23.40;82.70;;;;;;5085398;28;20041;-81
2022/07/20 00:55:59;;;;;;;5.80;3.15;;;23.40;83.00;;;;;;5078408;28;20048;-84
2022/07/20 00:58:45;;;;;;;7.95;3.22;;;23.30;83.90;;;;;;5073053;28;20041;-82
2022/07/20 01:01:33;;;;;;;9.10;3.22;;;23.20;84.50;;;;;;5076042;28;20052;-83
2022/07/20 01:04:19;;;;;;;6.78;2.97;;;23.20;85.00;;;;;;5073762;28;20044;-82
2022/07/20 01:07:06;;;;;;;7.55;3.65;;;23.10;85.20;;;;;;5072018;28;20048;-86
2022/07/20 01:09:52;;;;;;;6.88;2.70;;;23.10;85.40;;;;;;5074357;28;20523;-82
2022/07/20 01:12:43;;;;;;;6.45;2.78;;;23.00;86.00;;;;;;5071605;28;20045;-83
2022/07/20 01:15:29;;;;;;;7.45;2.72;;;23.00;85.70;;;;;;5059351;28;20064;-83
2022/07/20 01:18:16;;;;;;;5.75;2.60;;;23.00;85.30;;;;;;5073207;28;20408;-85
2022/07/20 01:21:07;;;;;;;5.75;3.03;;;22.90;85.00;;;;;;5073197;28;20106;-83
2022/07/20 01:23:54;;;;;;;5.80;2.85;;;22.90;85.80;;;;;;5071282;28;20055;-87
2022/07/20 01:26:42;;;;;;;7.75;3.22;;;22.80;86.50;;;;;;5072740;28;20082;-85
2022/07/20 01:29:28;;;;;;;7.68;2.83;;;22.80;87.40;;;;;;5072809;28;20052;-85
2022/07/20 01:32:14;;;;;;;13.35;3.08;;;22.70;87.50;;;;;;5071466;28;20055;-84
2022/07/20 01:35:00;;;;;;;8.77;2.88;;;22.70;88.20;;;;;;5072491;28;20458;-82
2022/07/20 01:37:46;;;;;;;6.85;3.03;;;22.70;88.50;;;;;;5070990;28;20047;-82
2022/07/20 01:40:33;;;;;;;7.85;2.95;;;22.60;88.00;;;;;;5071674;28;20147;-85
2022/07/20 01:43:19;;;;;;;10.80;3.05;;;22.60;87.30;;;;;;5073526;28;20125;-84
2022/07/20 01:46:05;;;;;;;8.98;3.30;;;22.60;87.10;;;;;;5071505;28;20056;-85
2022/07/20 01:48:52;;;;;;;6.03;2.67;;;22.60;87.60;;;;;;5072085;28;20049;-83
2022/07/20 01:51:38;;;;;;;8.10;3.17;;;22.60;88.70;;;;;;5072965;28;20450;-86
2022/07/20 01:54:26;;;;;;;8.13;3.15;;;22.50;89.10;;;;;;5058522;28;20048;-81
2022/07/20 01:57:12;;;;;;;7.93;3.10;;;22.50;89.20;;;;;;5058971;28;20067;-83
2022/07/20 01:59:59;;;;;;;8.23;2.60;;;22.50;88.80;;;;;;5073629;28;20040;-82
2022/07/20 02:02:49;;;;;;;6.82;2.80;;;22.40;88.70;;;;;;5072875;28;20052;-83
2022/07/20 02:05:35;;;;;;;7.22;2.65;;;22.40;88.80;;;;;;5045012;28;20087;-85
2022/07/20 02:08:25;;;;;;;6.72;3.17;;;22.40;88.90;;;;;;5071451;28;20130;-85
2022/07/20 02:11:11;;;;;;;4.78;2.35;;;22.40;88.50;;;;;;5071717;28;20072;-86
2022/07/20 02:13:59;;;;;;;9.55;4.07;;;22.40;88.30;;;;;;5073084;28;20056;-84
2022/07/20 02:16:46;;;;;;;8.15;3.60;;;22.40;89.00;;;;;;5080313;28;20427;-86
2022/07/20 02:19:32;;;;;;;7.55;3.13;;;22.30;89.20;;;;;;5074063;28;20135;-82
2022/07/20 02:22:19;;;;;;;8.35;2.97;;;22.30;88.90;;;;;;5073335;28;20476;-84
2022/07/20 02:25:05;;;;;;;8.00;3.72;;;22.30;88.70;;;;;;5080080;28;20166;-86
2022/07/20 02:27:52;;;;;;;6.18;3.47;;;22.30;89.00;;;;;;5081694;28;20049;-86
2022/07/20 02:30:40;;;;;;;8.00;3.22;;;22.20;89.70;;;;;;5073951;28;20050;-85
2022/07/20 02:33:26;;;;;;;5.20;3.03;;;22.20;90.10;;;;;;5076531;28;20045;-83
2022/07/20 02:36:16;;;;;;;7.30;3.67;;;22.10;90.20;;;;;;5060424;28;20051;-85
2022/07/20 02:39:03;;;;;;;8.93;3.17;;;22.10;90.20;;;;;;5071882;28;20049;-85
2022/07/20 02:41:50;;;;;;;6.32;3.05;;;22.00;90.00;;;;;;5074107;28;20044;-82
2022/07/20 02:44:36;;;;;;;6.28;3.78;;;22.00;90.10;;;;;;5075664;28;20048;-85
2022/07/20 02:47:23;;;;;;;5.60;3.08;;;22.00;90.20;;;;;;5076243;28;20040;-83
2022/07/20 02:50:11;;;;;;;8.55;3.50;;;22.00;90.20;;;;;;5076788;28;20063;-85
2022/07/20 02:52:57;;;;;;;6.93;3.05;;;22.00;90.30;;;;;;5075216;28;20064;-85
2022/07/20 02:55:44;;;;;;;11.68;3.90;;;21.90;90.50;;;;;;5075022;28;20044;-85
2022/07/20 02:58:30;;;;;;;6.38;3.58;;;21.90;90.50;;;;;;5075299;28;20201;-83
2022/07/20 03:01:17;;;;;;;5.63;3.22;;;21.80;90.50;;;;;;5073699;28;20509;-83
2022/07/20 03:04:03;;;;;;;7.13;3.28;;;21.80;90.40;;;;;;5072479;28;20412;-86
2022/07/20 03:06:49;;;;;;;11.07;3.95;;;21.90;90.10;;;;;;5056656;28;20060;-83
2022/07/20 03:09:35;;;;;;;5.57;2.70;;;21.80;90.00;;;;;;5069674;28;20045;-83
2022/07/20 03:12:22;;;;;;;7.20;3.53;;;21.90;90.00;;;;;;5071644;28;20839;-85
2022/07/20 03:15:10;;;;;;;8.93;3.05;;;21.90;90.20;;;;;;5072007;28;20145;-85
2022/07/20 03:17:56;;;;;;;8.48;3.40;;;21.80;90.50;;;;;;5071328;28;20415;-83
2022/07/20 03:20:42;;;;;;;7.30;3.00;;;21.80;90.90;;;;;;5070819;28;20064;-84
2022/07/20 03:23:29;;;;;;;8.48;3.03;;;21.80;91.10;;;;;;5069931;28;20131;-83
2022/07/20 03:26:15;;;;;;;7.68;2.95;;;21.70;91.20;;;;;;5070614;28;20110;-83
2022/07/20 03:29:02;;;;;;;9.18;3.00;;;21.70;91.40;;;;;;5070627;28;20047;-83
2022/07/20 03:31:48;;;;;;;9.55;2.92;;;21.60;91.70;;;;;;5077764;28;20041;-83
2022/07/20 03:34:34;;;;;;;7.78;3.38;;;21.60;91.80;;;;;;5076515;28;20044;-84
2022/07/20 03:37:21;;;;;;;8.30;3.75;;;21.60;91.70;;;;;;5070273;28;20056;-85
2022/07/20 03:40:08;;;;;;;7.63;3.25;;;21.60;91.90;;;;;;5071747;28;20182;-85
2022/07/20 03:42:54;;;;;;;8.65;3.80;;;21.60;91.90;;;;;;5073036;28;20427;-82
2022/07/20 03:45:41;;;;;;;6.43;3.20;;;21.60;91.80;;;;;;5070887;28;20538;-85
2022/07/20 03:48:27;;;;;;;6.63;2.70;;;21.60;92.00;;;;;;5072848;28;20052;-83
2022/07/20 03:51:14;;;;;;;10.07;3.30;;;21.60;92.10;;;;;;5073788;28;20055;-86
2022/07/20 03:54:00;;;;;;;7.00;3.17;;;21.60;91.70;;;;;;5074237;28;20052;-85
2022/07/20 03:56:46;;;;;;;6.25;2.95;;;21.60;91.20;;;;;;5074254;28;20446;-84
2022/07/20 03:59:33;;;;;;;6.05;2.75;;;21.60;90.90;;;;;;5076156;28;20072;-84
2022/07/20 04:02:19;;;;;;;7.90;2.88;;;21.60;90.80;;;;;;5076177;28;20045;-82
2022/07/20 04:05:06;;;;;;;5.93;2.88;;;21.70;90.60;;;;;;5074613;28;20045;-83
2022/07/20 04:07:52;;;;;;;11.38;3.70;;;21.70;90.40;;;;;;5077920;28;20087;-85
2022/07/20 04:10:39;;;;;;;8.23;3.58;;;21.80;90.50;;;;;;5071343;28;20071;-88
2022/07/20 04:13:25;;;;;;;7.38;3.47;;;21.80;90.60;;;;;;5042893;28;20052;-86
2022/07/20 04:16:11;;;;;;;5.15;2.88;;;21.80;90.70;;;;;;5076915;28;20044;-86
2022/07/20 04:18:57;;;;;;;7.93;3.45;;;21.80;90.70;;;;;;5079387;28;20048;-85
2022/07/20 04:21:44;;;;;;;10.40;2.92;;;21.80;90.70;;;;;;5073107;28;20056;-84
2022/07/20 04:24:33;;;;;;;5.85;2.85;;;21.80;90.70;;;;;;5071538;28;20049;-84
2022/07/20 04:27:19;;;;;;;9.77;2.97;;;21.80;91.30;;;;;;5073859;28;20041;-85
2022/07/20 04:30:06;;;;;;;8.02;2.92;;;21.80;91.50;;;;;;5070598;28;20057;-83
2022/07/20 04:32:52;;;;;;;5.43;3.30;;;21.90;91.50;;;;;;5074511;28;20070;-85
2022/07/20 04:35:38;;;;;;;6.20;3.00;;;21.90;91.70;;;;;;5071542;28;20041;-83
2022/07/20 04:38:25;;;;;;;8.25;3.47;;;21.90;91.50;;;;;;5070248;28;20492;-85
2022/07/20 04:41:11;;;;;;;7.45;3.25;;;21.90;91.60;;;;;;5069793;28;20524;-86
2022/07/20 04:43:57;;;;;;;7.80;3.13;;;22.00;91.60;;;;;;5074294;28;20480;-83
2022/07/20 04:46:46;;;;;;;5.22;2.80;;;22.10;91.30;;;;;;5074124;28;20051;-83
2022/07/20 04:49:33;;;;;;;7.13;3.40;;;22.10;90.50;;;;;;5076493;28;20067;-87
2022/07/20 04:52:19;;;;;;;6.47;3.40;;;22.20;90.30;;;;;;5075828;28;20049;-84
2022/07/20 04:55:06;;;;;;;6.90;3.53;;;22.20;89.90;;;;;;5074886;28;20048;-86
2022/07/20 04:57:52;;;;;;;6.65;3.75;;;22.30;89.80;;;;;;5072894;28;20044;-84
2022/07/20 05:00:38;;;;;;;12.60;3.47;;;22.40;90.40;;;;;;5060829;28;20135;-85
2022/07/20 05:03:24;;;;;;;6.30;3.30;;;22.50;90.10;;;;;;5072650;28;20076;-83
2022/07/20 05:06:11;;;;;;;7.75;2.97;;;22.50;90.10;;;;;;5073287;28;20102;-84
2022/07/20 05:08:57;;;;;;;9.65;3.08;;;22.50;90.10;;;;;;5059719;28;20087;-84
2022/07/20 05:11:43;;;;;;;6.72;3.20;;;22.60;90.20;;;;;;5059076;28;20071;-84
2022/07/20 05:14:30;;;;;;;8.00;3.45;;;22.60;90.40;;;;;;5074554;28;20045;-85
2022/07/20 05:17:16;;;;;;;11.90;3.13;;;22.70;90.50;;;;;;5077411;28;20135;-83
2022/07/20 05:20:03;;;;;;;5.03;3.08;;;22.70;90.60;;;;;;5047614;28;20075;-84
2022/07/20 05:22:49;;;;;;;7.15;3.10;;;22.70;90.80;;;;;;5076206;28;20044;-85
2022/07/20 05:25:39;;;;;;;6.72;3.08;;;22.70;91.10;;;;;;5090175;28;20060;-83
2022/07/20 05:28:25;;;;;;;5.43;3.20;;;22.80;91.00;;;;;;5089818;28;20059;-83
2022/07/20 05:31:15;;;;;;;12.00;3.80;;;22.80;91.00;;;;;;5084401;28;20056;-83
2022/07/20 05:34:01;;;;;;;10.50;3.33;;;22.80;91.10;;;;;;5073341;28;20052;-82
2022/07/20 05:36:50;;;;;;;8.23;3.17;;;22.80;91.20;;;;;;5075203;28;20056;-85
2022/07/20 05:39:37;;;;;;;6.88;3.63;;;22.90;91.40;;;;;;5075224;28;20056;-84
2022/07/20 05:42:23;;;;;;;7.60;3.65;;;23.00;91.40;;;;;;5073934;28;20400;-84
2022/07/20 05:45:09;;;;;;;6.85;3.50;;;23.00;91.50;;;;;;5075485;28;20048;-84
2022/07/20 05:47:56;;;;;;;5.90;3.20;;;23.20;91.80;;;;;;5071407;28;20056;-83
2022/07/20 05:50:43;;;;;;;6.53;3.45;;;23.20;91.90;;;;;;5072237;28;20040;-86
2022/07/20 05:53:29;;;;;;;6.60;3.83;;;23.30;91.80;;;;;;5071101;28;20044;-83
2022/07/20 05:56:16;;;;;;;7.72;3.10;;;23.40;91.70;;;;;;5072403;28;20045;-84
2022/07/20 05:59:02;;;;;;;9.57;3.53;;;23.50;91.90;;;;;;5070876;28;20153;-85
2022/07/20 06:01:48;;;;;;;10.23;3.63;;;23.60;91.90;;;;;;5071671;28;20048;-85
2022/07/20 06:04:35;;;;;;;9.05;3.13;;;23.80;92.20;;;;;;5072681;28;20045;-86
2022/07/20 06:07:21;;;;;;;7.85;3.40;;;23.90;92.20;;;;;;5071832;28;20044;-84
2022/07/20 06:10:08;;;;;;;10.30;3.33;;;24.00;92.20;;;;;;5073266;28;20048;-85
2022/07/20 06:12:59;;;;;;;8.10;3.50;;;24.20;92.20;;;;;;5072663;28;20502;-85
2022/07/20 06:15:45;;;;;;;8.75;3.60;;;24.40;92.10;;;;;;5057678;28;20040;-83
2022/07/20 06:18:31;;;;;;;6.88;3.15;;;24.50;91.80;;;;;;5072159;28;20052;-85
2022/07/20 06:21:17;;;;;;;10.00;3.20;;;24.70;91.50;;;;;;5057432;28;20061;-84
2022/07/20 06:24:04;;;;;;;7.82;3.67;;;24.80;91.40;;;;;;5070452;28;20044;-83
2022/07/20 06:26:50;;;;;;;8.80;3.92;;;24.90;91.60;;;;;;5071664;28;20052;-83
2022/07/20 06:29:36;;;;;;;7.88;3.30;;;25.00;90.70;;;;;;5070314;28;20056;-85
2022/07/20 06:32:23;;;;;;;7.28;3.33;;;25.10;90.60;;;;;;5074939;28;20060;-83
2022/07/20 06:35:10;;;;;;;6.85;3.22;;;25.20;90.90;;;;;;5076659;28;20044;-83
2022/07/20 06:37:57;;;;;;;8.30;4.20;;;25.20;90.80;;;;;;5075453;28;20135;-83
2022/07/20 06:40:43;;;;;;;9.32;3.95;;;25.30;90.50;;;;;;5077052;28;20047;-85
2022/07/20 06:43:30;;;;;;;6.97;3.30;;;25.30;90.30;;;;;;5073688;28;20075;-86
2022/07/20 06:46:16;;;;;;;7.00;4.13;;;25.40;90.20;;;;;;5057907;28;20045;-83
2022/07/20 06:49:02;;;;;;;9.10;3.75;;;25.50;90.20;;;;;;5074013;28;20049;-83
2022/07/20 06:51:48;;;;;;;9.23;3.65;;;25.70;90.20;;;;;;5076553;28;20052;-83
2022/07/20 06:54:37;;;;;;;7.93;4.07;;;25.80;90.00;;;;;;5072048;28;20051;-83
2022/07/20 06:57:24;;;;;;;6.90;3.83;;;25.90;89.30;;;;;;5072366;28;20056;-83
2022/07/20 07:00:12;;;;;;;8.80;3.90;;;25.90;88.90;;;;;;5070257;28;20052;-83
2022/07/20 07:02:58;;;;;;;5.97;4.00;;;26.00;89.00;;;;;;5070954;28;20052;-81
2022/07/20 07:05:45;;;;;;;14.55;4.07;;;26.10;89.10;;;;;;5072239;28;20129;-84
2022/07/20 07:08:31;;;;;;;14.70;4.40;;;26.20;88.90;;;;;;5057429;28;20045;-84
2022/07/20 07:11:18;;;;;;;7.40;3.88;;;26.40;88.60;;;;;;5057207;28;20055;-82
2022/07/20 07:14:05;;;;;;;9.30;3.35;;;26.60;88.30;;;;;;5072773;28;20040;-81
2022/07/20 07:16:52;;;;;;;7.82;4.25;;;26.80;88.10;;;;;;5074061;28;20044;-83
2022/07/20 07:19:41;;;;;;;6.88;4.22;;;26.90;88.10;;;;;;5073248;28;20067;-84
2022/07/20 07:22:30;;;;;;;12.02;4.97;;;27.10;88.00;;;;;;5071886;28;20133;-83
2022/07/20 07:25:16;;;;;;;16.05;5.95;;;27.10;88.20;;;;;;5057296;28;20045;-82
2022/07/20 07:28:03;;;;;;;11.88;5.32;;;27.00;89.00;;;;;;5070289;28;20393;-82
2022/07/20 07:30:52;;;;;;;11.75;5.60;;;27.30;89.60;;;;;;5071297;28;20052;-83
2022/07/20 07:33:38;;;;;;;10.43;5.32;;;27.30;89.70;;;;;;5069875;28;20040;-84
2022/07/20 07:36:25;;;;;;;10.23;5.30;;;27.30;90.40;;;;;;5070984;28;20407;-84
2022/07/20 07:39:11;;;;;;;13.25;6.22;;;27.50;91.00;;;;;;5070080;28;20055;-85
2022/07/20 07:41:57;;;;;;;14.60;7.10;;;27.40;91.00;;;;;;5072241;28;20048;-82
2022/07/20 07:44:44;;;;;;;13.23;7.63;;;27.40;91.60;;;;;;5075472;28;20044;-84
2022/07/20 07:47:33;;;;;;;15.85;7.50;;;27.50;92.20;;;;;;5070741;28;20114;-85
2022/07/20 07:50:20;;;;;;;17.27;8.73;;;27.70;92.60;;;;;;5074073;28;20123;-86
2022/07/20 07:53:07;;;;;;;14.45;7.85;;;27.80;93.10;;;;;;5072653;28;20049;-84
2022/07/20 07:55:54;;;;;;;20.98;8.85;;;27.80;93.20;;;;;;5070861;28;20044;-84
2022/07/20 07:58:40;;;;;;;12.73;7.97;;;27.90;93.20;;;;;;5071020;28;20053;-82
2022/07/20 08:01:26;;;;;;;13.40;8.23;;;28.00;93.00;;;;;;5070237;28;20040;-83
2022/07/20 08:04:13;;;;;;;17.95;8.70;;;28.00;93.70;;;;;;5070883;28;20049;-82
2022/07/20 08:06:59;;;;;;;18.10;9.73;;;28.10;94.10;;;;;;5071858;28;20044;-83
2022/07/20 08:09:45;;;;;;;16.70;9.25;;;28.00;93.50;;;;;;5071527;28;20131;-82
2022/07/20 08:12:32;;;;;;;17.35;9.23;;;28.20;93.70;;;;;;5071094;28;20052;-83
2022/07/20 08:15:18;;;;;;;21.63;10.27;;;28.30;93.50;;;;;;5074027;28;20075;-81
2022/07/20 08:18:05;;;;;;;18.30;9.48;;;28.40;93.60;;;;;;5079180;28;20048;-84
2022/07/20 08:20:51;;;;;;;15.30;10.18;;;28.50;93.90;;;;;;5080317;28;20500;-83
2022/07/20 08:23:38;;;;;;;18.52;10.57;;;28.50;93.80;;;;;;5078625;28;20048;-83
2022/07/20 08:26:24;;;;;;;24.77;11.27;;;28.60;93.90;;;;;;5074600;28;20063;-84
2022/07/20 08:29:11;;;;;;;26.45;11.52;;;28.60;94.00;;;;;;5074442;28;20060;-86
2022/07/20 08:31:57;;;;;;;20.60;12.10;;;28.60;94.60;;;;;;5074472;28;20055;-83
2022/07/20 08:34:43;;;;;;;18.50;13.25;;;28.70;95.40;;;;;;5074431;28;20101;-82
2022/07/20 08:37:29;;;;;;;21.40;13.25;;;28.80;95.30;;;;;;5075212;28;20040;-83
2022/07/20 08:40:17;;;;;;;26.05;13.93;;;28.70;96.00;;;;;;5074307;28;20479;-84
2022/07/20 08:43:03;;;;;;;24.35;16.10;;;28.80;95.40;;;;;;5074420;28;20056;-81
2022/07/20 08:45:50;;;;;;;30.08;17.70;;;28.70;95.40;;;;;;5074177;28;20037;-85
2022/07/20 08:48:41;;;;;;;29.83;17.52;;;28.70;95.50;;;;;;5074560;28;20063;-83
2022/07/20 08:51:27;;;;;;;28.33;16.20;;;28.70;95.60;;;;;;5073688;28;20500;-83
2022/07/20 08:54:14;;;;;;;26.88;16.25;;;28.70;95.30;;;;;;5076312;28;20124;-84
2022/07/20 08:57:16;;;;;;;27.70;15.90;;;29.00;95.50;;;;;;5075738;28;20067;-81
2022/07/20 09:00:04;;;;;;;25.15;16.27;;;29.20;95.80;;;;;;5078979;28;20052;-83
2022/07/20 09:03:01;;;;;;;24.70;16.83;;;29.20;95.10;;;;;;5081716;28;20041;-83
2022/07/20 09:06:04;;;;;;;25.20;16.63;;;29.10;95.10;;;;;;5078119;28;20044;-83
2022/07/20 09:09:05;;;;;;;28.50;17.35;;;29.20;94.90;;;;;;5077809;28;20040;-84
2022/07/20 09:11:52;;;;;;;30.60;18.13;;;29.20;94.60;;;;;;5074647;28;20086;-82
2022/07/20 09:14:47;;;;;;;31.27;18.25;;;29.20;95.20;;;;;;5059374;28;20101;-85
2022/07/20 09:17:34;;;;;;;26.90;17.17;;;29.20;94.30;;;;;;5074084;28;20083;-83
2022/07/20 09:20:20;;;;;;;30.25;17.80;;;29.30;94.50;;;;;;5073824;28;20054;-86
2022/07/20 09:23:10;;;;;;;27.73;18.02;;;29.10;94.80;;;;;;5073342;28;20103;-82
2022/07/20 09:26:04;;;;;;;32.88;19.83;;;29.10;95.50;;;;;;5074149;28;20051;-85
2022/07/20 09:28:52;;;;;;;;;;;28.90;95.20;;;;;;5073499;28;20063;-83
2022/07/20 09:31:39;;;;;;;34.38;20.83;;;28.70;96.10;;;;;;5090407;28;19969;-83
2022/07/20 09:34:25;;;;;;;34.88;20.30;;;28.70;95.30;;;;;;5073211;28;20055;-83
2022/07/20 09:37:16;;;;;;;32.10;18.42;;;28.40;95.30;;;;;;5059295;28;20044;-82
2022/07/20 09:40:04;;;;;;;28.85;18.15;;;28.40;95.30;;;;;;5057913;28;20059;-84
2022/07/20 09:42:50;;;;;;;27.80;17.50;;;28.50;95.40;;;;;;5072607;28;20451;-82
2022/07/20 09:45:36;;;;;;;27.70;18.27;;;28.50;95.40;;;;;;5073793;28;20131;-82
2022/07/20 09:48:24;;;;;;;29.17;18.05;;;28.60;95.60;;;;;;5075295;28;20048;-83
2022/07/20 09:51:17;;;;;;;24.88;15.85;;;28.90;95.90;;;;;;5078382;28;20066;-82
2022/07/20 09:54:05;;;;;;;28.45;16.45;;;28.90;94.90;;;;;;5078890;28;20059;-86
2022/07/20 09:57:01;;;;;;;26.38;13.55;;;28.90;94.70;;;;;;5077239;28;20066;-84
2022/07/20 09:59:51;;;;;;;24.92;14.98;;;29.00;94.50;;;;;;5074682;28;20044;-83
2022/07/20 10:02:37;;;;;;;26.70;14.82;;;29.00;94.20;;;;;;5075435;28;20044;-84
2022/07/20 10:05:34;;;;;;;23.80;14.88;;;29.00;94.30;;;;;;5073822;28;20044;-84
2022/07/20 10:08:24;;;;;;;26.58;14.15;;;29.00;93.80;;;;;;5072593;28;20404;-86
2022/07/20 10:11:11;;;;;;;29.50;13.50;;;29.20;93.90;;;;;;5071841;28;20040;-85
2022/07/20 10:14:01;;;;;;;20.92;13.07;;;29.40;93.80;;;;;;5072681;28;20660;-84
2022/07/20 10:16:53;;;;;;;20.23;12.80;;;29.50;92.30;;;;;;5073212;28;20094;-82
2022/07/20 10:19:47;;;;;;;22.65;12.73;;;29.40;91.00;;;;;;5074059;28;20054;-84
2022/07/20 10:22:34;;;;;;;18.90;11.25;;;29.70;90.80;;;;;;5074073;28;20067;-84
2022/07/20 10:25:25;;;;;;;18.42;11.25;;;29.80;91.20;;;;;;5072330;28;20044;-82
2022/07/20 10:28:34;;;;;;;19.00;10.65;;;30.00;90.20;;;;;;5070866;28;20056;-84
2022/07/20 10:31:22;;;;;;;20.48;10.73;;;30.40;86.90;;;;;;5071554;28;20070;-85
2022/07/20 10:34:36;;;;;;;19.08;11.02;;;30.30;84.10;;;;;;5073383;28;20048;-84
2022/07/20 10:37:34;;;;;;;18.03;9.60;;;30.40;85.80;;;;;;5073779;28;20398;-82
2022/07/20 10:40:28;;;;;;;19.95;10.82;;;30.50;84.60;;;;;;5074406;28;20298;-84
2022/07/20 10:43:16;;;;;;;16.13;9.55;;;30.50;83.20;;;;;;5081564;28;20450;-85
2022/07/20 10:46:32;;;;;;;15.55;9.77;;;30.50;83.20;;;;;;5077267;28;20084;-84
2022/07/20 10:49:19;;;;;;;18.10;10.93;;;30.50;84.10;;;;;;5074685;28;20048;-81
2022/07/20 10:52:27;;;;;;;17.98;10.35;;;30.40;84.30;;;;;;5073391;28;20146;-84
2022/07/20 10:55:37;;;;;;;14.50;9.38;;;30.30;84.80;;;;;;5075104;28;20048;-84
2022/07/20 10:58:26;;;;;;;14.45;9.35;;;30.10;81.20;;;;;;5077132;28;20052;-83
2022/07/20 11:01:14;;;;;;;18.45;10.00;;;30.20;83.90;;;;;;5076466;28;20048;-86
2022/07/20 11:04:00;;;;;;;16.92;8.75;;;30.50;85.00;;;;;;5077833;28;20518;-84
2022/07/20 11:06:47;;;;;;;11.70;7.68;;;30.50;83.20;;;;;;5075443;28;20052;-84
2022/07/20 11:09:37;;;;;;;16.27;8.52;;;30.60;82.50;;;;;;5071645;28;20061;-83
2022/07/20 11:12:30;;;;;;;13.13;7.70;;;30.60;82.20;;;;;;5071498;28;20044;-82
2022/07/20 11:15:16;;;;;;;12.80;7.18;;;30.60;81.90;;;;;;5073108;28;20131;-83
2022/07/20 11:18:03;;;;;;;10.52;7.15;;;30.70;81.10;;;;;;5071000;28;20114;-80
2022/07/20 11:20:49;;;;;;;17.70;8.15;;;30.70;80.40;;;;;;5070743;28;20049;-81
2022/07/20 11:23:49;;;;;;;19.60;9.20;;;30.80;79.80;;;;;;5069931;28;20507;-82
2022/07/20 11:26:35;;;;;;;17.98;8.45;;;30.40;78.10;;;;;;5069493;28;20056;-85
2022/07/20 11:29:23;;;;;;;16.98;8.38;;;30.60;79.00;;;;;;5071564;28;20055;-83
2022/07/20 11:32:10;;;;;;;12.80;8.38;;;30.90;79.40;;;;;;5072049;28;20052;-81
2022/07/20 11:34:57;;;;;;;13.77;8.20;;;30.90;79.40;;;;;;5070939;28;20055;-84
2022/07/20 11:37:50;;;;;;;15.23;8.30;;;31.40;79.50;;;;;;5072139;28;20054;-85
2022/07/20 11:40:36;;;;;;;14.80;8.20;;;31.60;78.60;;;;;;5072661;28;20336;-83
2022/07/20 11:43:23;;;;;;;11.93;7.60;;;31.70;77.40;;;;;;5070598;28;20201;-83
2022/07/20 11:46:18;;;;;;;13.55;8.68;;;31.60;78.10;;;;;;5069696;28;20234;-82
2022/07/20 11:49:06;;;;;;;15.50;10.18;;;31.40;75.60;;;;;;5073078;28;20376;-81
2022/07/20 11:51:56;;;;;;;14.82;9.35;;;31.50;76.20;;;;;;5071524;28;20088;-82
2022/07/20 11:54:42;;;;;;;18.40;10.85;;;31.40;75.10;;;;;;5074820;28;20137;-82
2022/07/20 11:57:29;;;;;;;17.08;10.40;;;31.10;74.30;;;;;;5074151;28;20137;-84
2022/07/20 12:00:16;;;;;;;15.93;9.60;;;30.80;74.60;;;;;;5074766;28;20131;-84
2022/07/20 12:03:03;;;;;;;15.60;9.75;;;31.20;76.70;;;;;;5075285;28;20048;-83
2022/07/20 12:05:50;;;;;;;13.95;9.02;;;31.40;75.70;;;;;;5075671;28;20132;-83
2022/07/20 12:08:37;;;;;;;16.40;9.05;;;31.70;74.60;;;;;;5076030;28;20114;-84
2022/07/20 12:11:23;;;;;;;20.23;8.57;;;31.40;74.90;;;;;;5076369;28;20527;-86
2022/07/20 12:14:10;;;;;;;12.32;8.02;;;31.40;76.20;;;;;;5074459;28;20052;-85
2022/07/20 12:17:08;;;;;;;14.95;8.25;;;31.70;74.10;;;;;;5075294;28;20048;-86
2022/07/20 12:19:58;;;;;;;13.98;7.60;;;31.60;75.60;;;;;;5076104;28;20041;-85
2022/07/20 12:22:57;;;;;;;13.15;7.63;;;31.70;74.80;;;;;;5061691;28;20109;-86
2022/07/20 12:25:44;;;;;;;22.75;9.73;;;31.40;71.70;;;;;;5075609;28;20131;-82
2022/07/20 12:28:37;;;;;;;15.95;8.05;;;31.40;71.60;;;;;;5075783;28;20052;-83
2022/07/20 12:31:26;;;;;;;17.27;9.00;;;31.40;72.30;;;;;;5071870;28;20076;-84
2022/07/20 12:34:14;;;;;;;12.13;8.00;;;31.60;70.30;;;;;;5079453;28;20575;-82
2022/07/20 12:37:00;;;;;;;14.63;7.72;;;31.40;70.70;;;;;;5079363;28;20041;-81
2022/07/20 12:39:56;;;;;;;13.55;8.27;;;31.50;70.40;;;;;;5081682;28;20602;-83
2022/07/20 12:42:42;;;;;;;13.25;7.90;;;31.90;70.30;;;;;;5074132;28;20510;-85
2022/07/20 12:45:29;;;;;;;17.52;8.18;;;31.80;70.10;;;;;;5060462;28;20083;-85
2022/07/20 12:48:15;;;;;;;11.40;7.13;;;31.70;68.60;;;;;;5075108;28;20041;-83
2022/07/20 12:51:01;;;;;;;12.05;6.20;;;31.70;69.00;;;;;;5062102;28;20139;-85
2022/07/20 12:53:48;;;;;;;12.23;6.57;;;31.90;69.00;;;;;;5075939;28;20466;-82
2022/07/20 12:56:35;;;;;;;14.57;6.47;;;32.20;68.90;;;;;;5074637;28;20079;-81
2022/07/20 12:59:21;;;;;;;13.60;6.75;;;32.30;67.50;;;;;;5074236;28;20048;-82
2022/07/20 13:02:07;;;;;;;9.65;5.93;;;32.30;66.40;;;;;;5071734;28;20240;-80
2022/07/20 13:04:54;;;;;;;9.30;5.97;;;32.40;66.10;;;;;;5075147;28;20059;-81
2022/07/20 13:07:40;;;;;;;9.88;5.85;;;32.90;65.90;;;;;;5059035;28;20044;-81
2022/07/20 13:10:26;;;;;;;11.45;6.35;;;32.90;66.30;;;;;;5073325;28;20041;-82
2022/07/20 13:13:12;;;;;;;11.85;5.57;;;32.80;66.00;;;;;;5072837;28;20040;-84
2022/07/20 13:15:59;;;;;;;9.40;5.22;;;32.70;65.90;;;;;;5071990;28;20048;-81
2022/07/20 13:18:45;;;;;;;10.55;5.55;;;32.60;63.80;;;;;;5072472;28;20492;-82
2022/07/20 13:21:32;;;;;;;12.43;5.57;;;32.20;65.10;;;;;;5074556;28;20412;-84
2022/07/20 13:24:18;;;;;;;10.30;5.55;;;32.50;66.30;;;;;;5076929;28;20526;-85
2022/07/20 13:27:05;;;;;;;9.52;6.25;;;32.70;65.90;;;;;;5073815;28;20091;-86
2022/07/20 13:29:51;;;;;;;10.50;6.63;;;33.10;66.00;;;;;;5072484;28;20143;-80
2022/07/20 13:32:38;;;;;;;12.48;6.47;;;32.80;63.80;;;;;;5075514;28;20053;-81
2022/07/20 13:35:24;;;;;;;9.82;5.97;;;32.90;65.10;;;;;;5079507;28;20392;-80
2022/07/20 13:38:11;;;;;;;15.27;6.75;;;32.80;65.60;;;;;;5082802;28;20067;-85
2022/07/20 13:40:57;;;;;;;8.35;6.47;;;32.80;65.00;;;;;;5074350;28;20049;-84
2022/07/20 13:43:46;;;;;;;11.00;5.80;;;32.70;64.40;;;;;;5075368;28;20128;-82
2022/07/20 13:46:32;;;;;;;11.60;5.75;;;32.80;63.90;;;;;;5073052;28;20127;-83
2022/07/20 13:49:19;;;;;;;11.35;6.10;;;33.10;64.30;;;;;;5071998;28;20045;-84
2022/07/20 13:52:05;;;;;;;10.70;5.97;;;33.30;65.80;;;;;;5074114;28;20051;-85
2022/07/20 13:54:52;;;;;;;12.38;6.45;;;33.40;64.10;;;;;;5075252;28;20049;-84
2022/07/20 13:57:39;;;;;;;10.68;6.30;;;33.90;63.70;;;;;;5057828;28;20059;-84
2022/07/20 14:00:25;;;;;;;11.75;6.50;;;33.70;62.60;;;;;;5059128;28;20048;-79
2022/07/20 14:03:12;;;;;;;13.13;6.85;;;33.70;61.90;;;;;;5073908;28;20055;-83
2022/07/20 14:05:58;;;;;;;10.73;6.47;;;33.80;62.60;;;;;;5071213;28;20135;-82
2022/07/20 14:08:45;;;;;;;16.63;6.93;;;33.80;63.10;;;;;;5072505;28;20063;-85
2022/07/20 14:11:37;;;;;;;13.27;6.75;;;34.30;64.00;;;;;;5073238;28;20186;-80
2022/07/20 14:14:23;;;;;;;9.25;6.40;;;34.30;64.30;;;;;;5070273;28;20098;-81
2022/07/20 14:17:11;;;;;;;12.00;6.75;;;34.40;65.00;;;;;;5071758;28;20407;-82
2022/07/20 14:19:57;;;;;;;16.33;7.45;;;34.50;64.50;;;;;;5072269;28;20110;-81
2022/07/20 14:22:46;;;;;;;15.27;6.82;;;34.10;63.70;;;;;;5071833;28;20056;-82
2022/07/20 14:25:33;;;;;;;15.23;6.55;;;34.40;62.90;;;;;;5072530;28;20057;-83
2022/07/20 14:28:19;;;;;;;12.55;7.13;;;34.80;63.30;;;;;;5071036;28;20067;-81